Time;durP1;ratioP1;P1;durP2;ratioP2;P2;SDS_P1;SDS_P2;PMS_P1;PMS_P2;Temp;Humidity;BMP_temperature;BMP_pressure;BME280_temperature;BME280_humidity;BME280_pressure;Samples;Min_cycle;Max_cycle;Signal;HPM_P1;HPM_P2
2021/10/19 00:00:32;;;;;;;5.00;3.40;;;8.50;99.90;8.50;101332.00;;;;4933270;28;93847;-64
2021/10/19 00:02:58;;;;;;;5.90;4.00;;;8.60;99.90;8.60;101346.00;;;;4933180;28;92894;-64
2021/10/19 00:05:24;;;;;;;5.00;3.73;;;8.60;99.90;8.60;101339.00;;;;4932841;28;94049;-64
2021/10/19 00:07:50;;;;;;;6.00;4.33;;;8.70;99.90;8.60;101327.00;;;;4933175;28;93792;-64
2021/10/19 00:10:16;;;;;;;5.23;3.07;;;8.70;99.90;8.70;101334.00;;;;4914826;28;93775;-64
2021/10/19 00:12:43;;;;;;;6.67;3.47;;;8.80;99.90;8.70;101328.00;;;;4932729;28;93506;-63
2021/10/19 00:15:11;;;;;;;4.53;3.50;;;8.80;99.90;8.80;101335.00;;;;4933335;28;92953;-64
2021/10/19 00:17:41;;;;;;;4.53;3.90;;;8.80;99.90;8.80;101327.00;;;;4933896;28;92957;-65
2021/10/19 00:20:08;;;;;;;5.60;4.13;;;8.80;99.90;8.80;101316.00;;;;4932233;28;93191;-66
2021/10/19 00:22:34;;;;;;;10.50;3.43;;;8.90;99.90;8.80;101310.00;;;;4915130;28;92634;-64
2021/10/19 00:25:06;;;;;;;4.70;3.83;;;8.90;99.90;8.80;101300.00;;;;4932852;28;96475;-63
2021/10/19 00:27:35;;;;;;;7.13;4.27;;;8.90;99.90;8.80;101303.00;;;;4930796;28;92881;-64
2021/10/19 00:30:05;;;;;;;5.70;3.20;;;8.90;99.90;8.90;101308.00;;;;4932882;28;94159;-64
2021/10/19 00:32:31;;;;;;;7.83;3.77;;;8.90;99.90;8.90;101302.00;;;;4932970;28;93674;-64
2021/10/19 00:34:57;;;;;;;5.57;3.43;;;8.90;99.90;8.90;101306.00;;;;4933549;28;93049;-64
2021/10/19 00:37:23;;;;;;;6.67;3.57;;;8.90;99.90;8.90;101314.00;;;;4932642;28;107409;-64
2021/10/19 00:39:48;;;;;;;9.20;4.30;;;8.90;99.90;8.90;101321.00;;;;4913961;28;123849;-64
2021/10/19 00:42:14;;;;;;;8.47;3.87;;;9.00;99.90;8.90;101306.00;;;;4935478;28;122152;-65
2021/10/19 00:44:40;;;;;;;5.77;4.37;;;8.90;99.90;8.90;101307.00;;;;4936081;28;92719;-63
2021/10/19 00:47:06;;;;;;;7.60;4.07;;;8.90;99.90;8.90;101305.00;;;;4936444;28;109566;-64
2021/10/19 00:49:32;;;;;;;4.50;3.17;;;9.00;99.90;8.90;101301.00;;;;4934936;28;122634;-64
2021/10/19 00:51:58;;;;;;;7.40;4.27;;;8.90;99.90;8.90;101300.00;;;;4934860;28;118186;-64
2021/10/19 00:54:25;;;;;;;7.43;4.67;;;9.00;99.90;8.90;101304.00;;;;4936088;28;93965;-64
2021/10/19 00:56:55;;;;;;;6.60;4.30;;;8.90;99.90;8.90;101302.00;;;;4936533;28;92698;-64
2021/10/19 00:59:21;;;;;;;6.43;3.70;;;9.00;99.90;8.90;101304.00;;;;4935830;28;93715;-64
2021/10/19 01:01:48;;;;;;;7.17;4.00;;;8.90;99.90;8.90;101301.00;;;;4935970;28;93627;-64
2021/10/19 01:04:14;;;;;;;5.60;3.67;;;8.90;99.90;8.80;101296.00;;;;4935209;28;94800;-64
2021/10/19 01:06:40;;;;;;;5.67;4.17;;;8.90;99.90;8.80;101291.00;;;;4936108;28;92629;-64
2021/10/19 01:09:08;;;;;;;5.37;3.63;;;8.90;99.90;8.80;101283.00;;;;4935779;28;93536;-64
2021/10/19 01:11:34;;;;;;;5.90;4.13;;;8.90;99.90;8.80;101281.00;;;;4935819;28;93485;-64
2021/10/19 01:14:00;;;;;;;5.27;3.93;;;8.90;99.90;8.80;101272.00;;;;4935664;28;92769;-64
2021/10/19 01:16:25;;;;;;;8.40;4.47;;;8.90;99.90;8.80;101281.00;;;;4935551;28;108246;-64
2021/10/19 01:18:51;;;;;;;10.40;4.10;;;8.90;99.90;8.80;101273.00;;;;4934693;28;100886;-63
2021/10/19 01:21:17;;;;;;;6.00;4.17;;;8.80;99.90;8.80;101268.00;;;;4935254;28;93713;-64
2021/10/19 01:23:42;;;;;;;4.97;3.27;;;8.80;99.90;8.70;101253.00;;;;4934783;28;110687;-64
2021/10/19 01:26:09;;;;;;;5.33;4.17;;;8.80;99.90;8.70;101240.00;;;;4936080;28;98735;-65
2021/10/19 01:28:42;;;;;;;8.97;3.83;;;8.80;99.90;8.70;101234.00;;;;4935556;28;92782;-64
2021/10/19 01:31:11;;;;;;;7.33;3.63;;;8.80;99.90;8.70;101241.00;;;;4915863;28;93824;-64
2021/10/19 01:33:38;;;;;;;8.10;4.10;;;8.80;99.90;8.70;101241.00;;;;4929019;28;93359;-64
2021/10/19 01:36:07;;;;;;;6.50;3.83;;;8.80;99.90;8.70;101241.00;;;;4936136;28;92251;-64
2021/10/19 01:38:38;;;;;;;6.47;4.73;;;8.80;99.90;8.70;101233.00;;;;4934616;28;94107;-65
2021/10/19 01:41:04;;;;;;;4.63;3.93;;;8.70;99.90;8.70;101237.00;;;;4918242;28;92937;-65
2021/10/19 01:43:31;;;;;;;5.70;4.47;;;8.80;99.90;8.70;101222.00;;;;4934893;28;93959;-64
2021/10/19 01:46:01;;;;;;;8.10;4.80;;;8.80;99.90;8.70;101231.00;;;;4935682;28;92942;-64
2021/10/19 01:48:30;;;;;;;5.33;4.30;;;8.80;99.90;8.70;101213.00;;;;4935026;28;93043;-65
2021/10/19 01:50:55;;;;;;;5.23;4.13;;;8.80;99.90;8.70;101229.00;;;;4934723;28;93842;-65
2021/10/19 01:53:23;;;;;;;6.13;4.50;;;8.80;99.90;8.70;101226.00;;;;4934246;28;92824;-65
2021/10/19 01:55:49;;;;;;;7.90;3.73;;;8.80;99.90;8.70;101230.00;;;;4934573;28;93213;-65
2021/10/19 01:58:21;;;;;;;6.80;5.13;;;8.80;99.90;8.70;101232.00;;;;4934382;28;93853;-66
2021/10/19 02:00:47;;;;;;;5.47;4.20;;;8.80;99.90;8.70;101227.00;;;;4934788;28;92820;-65
2021/10/19 02:03:13;;;;;;;6.20;4.67;;;8.80;99.90;8.70;101225.00;;;;4934107;28;92780;-66
2021/10/19 02:05:38;;;;;;;6.20;3.80;;;8.80;99.90;8.80;101212.00;;;;4933177;28;108760;-65
2021/10/19 02:08:05;;;;;;;6.27;4.90;;;8.80;99.90;8.80;101223.00;;;;4932862;28;124648;-65
2021/10/19 02:10:34;;;;;;;11.40;4.77;;;8.80;99.90;8.80;101219.00;;;;4934396;28;94782;-65
2021/10/19 02:13:02;;;;;;;9.77;3.90;;;8.90;99.90;8.80;101225.00;;;;4916284;28;92913;-65
2021/10/19 02:15:27;;;;;;;7.30;4.43;;;8.90;99.90;8.80;101219.00;;;;4934784;28;92834;-65
2021/10/19 02:17:54;;;;;;;6.53;4.50;;;8.90;99.90;8.80;101220.00;;;;4934057;28;101445;-65
2021/10/19 02:20:21;;;;;;;8.20;4.67;;;8.90;99.90;8.80;101214.00;;;;4934192;28;93694;-66
2021/10/19 02:22:48;;;;;;;10.20;5.30;;;8.90;99.90;8.90;101206.00;;;;4934744;28;92615;-65
2021/10/19 02:25:15;;;;;;;8.57;4.70;;;8.90;99.90;8.90;101207.00;;;;4935009;28;92261;-66
2021/10/19 02:27:41;;;;;;;8.70;4.87;;;9.00;99.90;8.90;101211.00;;;;4934683;28;92926;-65
2021/10/19 02:30:08;;;;;;;6.70;4.57;;;9.00;99.90;8.90;101224.00;;;;4934258;28;93178;-65
2021/10/19 02:32:39;;;;;;;5.87;4.40;;;9.00;99.90;8.90;101216.00;;;;4933986;28;93785;-65
2021/10/19 02:35:16;;;;;;;5.73;4.40;;;9.00;99.90;8.90;101219.00;;;;4934514;28;92805;-65
2021/10/19 02:37:44;;;;;;;4.67;3.80;;;9.00;99.90;9.00;101214.00;;;;4933973;28;101324;-63
2021/10/19 02:40:12;;;;;;;6.47;4.60;;;9.00;99.90;9.00;101227.00;;;;4933213;28;106978;-63
2021/10/19 02:42:39;;;;;;;8.37;4.93;;;9.00;99.90;9.00;101231.00;;;;4934259;28;92821;-63
2021/10/19 02:45:07;;;;;;;5.90;4.40;;;9.00;99.90;9.00;101226.00;;;;4915268;28;92879;-63
2021/10/19 02:47:32;;;;;;;6.80;4.50;;;9.10;99.90;9.00;101215.00;;;;4934315;28;97076;-64
2021/10/19 02:49:58;;;;;;;7.50;4.30;;;9.10;99.90;9.00;101220.00;;;;4933403;28;99702;-64
2021/10/19 02:52:24;;;;;;;7.10;3.93;;;9.10;99.90;9.00;101218.00;;;;4933935;28;104809;-65
2021/10/19 02:54:51;;;;;;;10.40;5.13;;;9.90;99.90;9.00;101219.00;;;;4934056;28;92792;-64
2021/10/19 02:57:18;;;;;;;7.87;3.97;;;10.00;99.90;9.00;101208.00;;;;4933777;28;94111;-64
2021/10/19 02:59:44;;;;;;;6.73;4.17;;;9.10;99.90;9.00;101217.00;;;;4933362;28;106354;-64
2021/10/19 03:02:10;;;;;;;8.07;3.63;;;9.10;99.90;9.00;101200.00;;;;4932161;28;110547;-64
2021/10/19 03:04:36;;;;;;;5.10;3.97;;;10.40;99.90;9.00;101184.00;;;;4932942;28;107417;-64
2021/10/19 03:07:02;;;;;;;6.07;4.57;;;9.10;99.90;8.90;101195.00;;;;4934178;28;93216;-64
2021/10/19 03:09:28;;;;;;;9.37;4.27;;;9.00;99.90;8.90;101215.00;;;;4933533;28;93674;-64
2021/10/19 03:11:53;;;;;;;5.03;3.83;;;9.00;99.90;8.90;101204.00;;;;4934435;28;93270;-64
2021/10/19 03:14:19;;;;;;;6.30;4.30;;;9.00;99.90;8.80;101213.00;;;;4933216;28;108569;-64
2021/10/19 03:16:45;;;;;;;5.00;4.03;;;8.90;99.90;8.70;101199.00;;;;4932529;28;123026;-64
2021/10/19 03:19:10;;;;;;;5.90;3.87;;;8.90;99.90;8.60;101204.00;;;;4934001;28;95597;-64
2021/10/19 03:21:36;;;;;;;5.13;3.80;;;8.80;99.90;8.50;101201.00;;;;4932404;28;109668;-64
2021/10/19 03:24:04;;;;;;;6.33;4.13;;;8.70;99.90;8.50;101199.00;;;;4932855;28;97174;-64
2021/10/19 03:26:29;;;;;;;6.23;4.33;;;8.60;99.90;8.40;101204.00;;;;4932953;28;93738;-64
2021/10/19 03:28:55;;;;;;;6.20;4.33;;;8.50;99.90;8.30;101199.00;;;;4933018;28;102950;-64
2021/10/19 03:31:21;;;;;;;5.00;4.00;;;8.50;99.90;8.20;101190.00;;;;4933758;28;92944;-65
2021/10/19 03:33:47;;;;;;;4.43;3.40;;;8.40;99.90;8.10;101195.00;;;;4933068;28;109015;-64
2021/10/19 03:36:12;;;;;;;5.50;3.93;;;8.30;99.90;8.00;101196.00;;;;4932245;28;123129;-64
2021/10/19 03:38:38;;;;;;;5.63;3.73;;;8.20;99.90;7.90;101185.00;;;;4932564;28;100754;-64
2021/10/19 03:41:06;;;;;;;6.10;3.33;;;8.00;99.90;7.80;101182.00;;;;4933392;28;93157;-64
2021/10/19 03:43:32;;;;;;;6.27;3.93;;;7.90;99.90;7.70;101183.00;;;;4933861;28;93371;-64
2021/10/19 03:45:58;;;;;;;5.93;4.50;;;7.90;99.90;7.60;101184.00;;;;4932900;28;94432;-64
2021/10/19 03:48:24;;;;;;;8.70;5.13;;;7.80;99.90;7.50;101186.00;;;;4933584;28;106034;-65
2021/10/19 03:50:50;;;;;;;7.70;5.23;;;8.10;99.90;7.40;101193.00;;;;4899478;28;94613;-64
2021/10/19 03:53:16;;;;;;;6.33;4.40;;;7.60;99.90;7.40;101180.00;;;;4932152;28;109676;-64
2021/10/19 03:55:43;;;;;;;8.57;5.03;;;7.50;99.90;7.30;101181.00;;;;4933131;28;93789;-64
2021/10/19 03:58:10;;;;;;;7.63;4.57;;;7.50;99.90;7.20;101188.00;;;;4932761;28;93630;-63
2021/10/19 04:00:36;;;;;;;6.37;4.30;;;7.40;99.90;7.20;101192.00;;;;4933808;28;92748;-65
2021/10/19 04:03:02;;;;;;;6.87;4.67;;;7.30;99.90;7.10;101204.00;;;;4932490;28;109432;-66
2021/10/19 04:05:28;;;;;;;7.67;4.67;;;7.30;99.90;7.10;101207.00;;;;4931995;28;122394;-66
2021/10/19 04:07:53;;;;;;;15.80;9.03;;;7.20;99.90;7.00;101207.00;;;;4933237;28;93230;-65
2021/10/19 04:10:21;;;;;;;10.00;8.13;;;7.20;99.90;7.00;101205.00;;;;4931662;28;104692;-64
2021/10/19 04:12:47;;;;;;;10.10;6.90;;;7.20;99.90;7.00;101195.00;;;;4932895;28;93014;-65
2021/10/19 04:15:13;;;;;;;6.17;4.70;;;7.10;99.90;7.00;101189.00;;;;4934102;28;122237;-65
2021/10/19 04:17:39;;;;;;;5.93;4.47;;;7.10;99.90;6.90;101192.00;;;;4935117;28;122794;-65
2021/10/19 04:20:06;;;;;;;7.70;5.73;;;7.10;99.90;6.90;101204.00;;;;4935442;28;110669;-65
2021/10/19 04:22:32;;;;;;;8.20;5.47;;;7.10;99.90;6.90;101190.00;;;;4936232;28;92779;-65
2021/10/19 04:24:59;;;;;;;5.97;4.97;;;7.00;99.90;6.90;101192.00;;;;4936118;28;93417;-66
2021/10/19 04:27:25;;;;;;;6.23;4.87;;;7.00;99.90;6.80;101192.00;;;;4937126;28;93647;-65
2021/10/19 04:29:52;;;;;;;5.50;4.57;;;6.90;99.90;6.80;101182.00;;;;4935859;28;92901;-66
2021/10/19 04:32:18;;;;;;;8.53;4.57;;;6.90;99.90;6.80;101173.00;;;;4934149;28;100102;-65
2021/10/19 04:34:44;;;;;;;11.57;5.70;;;6.90;99.90;6.70;101180.00;;;;4934610;28;123338;-65
2021/10/19 04:37:10;;;;;;;6.33;4.37;;;6.90;99.90;6.70;101174.00;;;;4935274;28;103414;-65
2021/10/19 04:39:35;;;;;;;9.70;5.57;;;6.90;99.90;6.70;101190.00;;;;4935371;28;107698;-65
2021/10/19 04:42:02;;;;;;;5.27;4.77;;;6.90;99.90;6.70;101183.00;;;;4934262;28;108891;-65
2021/10/19 04:44:28;;;;;;;11.07;5.90;;;6.80;99.90;6.70;101195.00;;;;4933107;28;94331;-65
2021/10/19 04:46:55;;;;;;;6.80;4.67;;;6.80;99.90;6.70;101180.00;;;;4933214;28;93149;-65
2021/10/19 04:49:21;;;;;;;8.00;5.53;;;6.80;99.90;6.70;101176.00;;;;4921510;28;96350;-64
2021/10/19 04:51:46;;;;;;;6.70;4.63;;;6.80;99.90;6.70;101172.00;;;;4915490;28;106763;-65
2021/10/19 04:54:12;;;;;;;8.63;5.33;;;6.80;99.90;6.70;101160.00;;;;4924128;28;122454;-65
2021/10/19 04:56:38;;;;;;;6.83;4.53;;;6.80;99.90;6.70;101152.00;;;;4930771;28;122791;-64
2021/10/19 04:59:04;;;;;;;7.27;4.53;;;6.80;99.90;6.70;101157.00;;;;4932772;28;94066;-64
2021/10/19 05:01:30;;;;;;;7.07;4.93;;;6.90;99.90;6.80;101155.00;;;;4935876;28;92847;-64
2021/10/19 05:03:56;;;;;;;8.73;5.03;;;6.90;99.90;6.80;101151.00;;;;4916375;28;122822;-65
2021/10/19 05:06:22;;;;;;;10.53;4.90;;;6.90;99.90;6.80;101158.00;;;;4934052;28;123134;-64
2021/10/19 05:08:47;;;;;;;9.50;4.80;;;6.90;99.90;6.90;101156.00;;;;4934964;28;101779;-64
2021/10/19 05:11:13;;;;;;;6.10;4.80;;;7.00;99.90;6.90;101155.00;;;;4934518;28;109195;-64
2021/10/19 05:13:39;;;;;;;6.07;4.80;;;7.00;99.90;7.00;101166.00;;;;4934776;28;100395;-65
2021/10/19 05:16:05;;;;;;;8.13;4.90;;;7.10;99.90;7.00;101178.00;;;;4934376;28;121663;-64
2021/10/19 05:18:31;;;;;;;6.87;4.70;;;7.10;99.90;7.00;101183.00;;;;4936184;28;93573;-64
2021/10/19 05:20:56;;;;;;;9.03;4.47;;;7.20;99.90;7.10;101188.00;;;;4934512;28;93011;-64
2021/10/19 05:23:22;;;;;;;7.03;4.83;;;7.20;99.90;7.10;101176.00;;;;4934669;28;101267;-65
2021/10/19 05:25:48;;;;;;;5.07;3.93;;;7.20;99.90;7.10;101175.00;;;;4933994;28;93220;-65
2021/10/19 05:28:13;;;;;;;8.70;4.93;;;7.30;99.90;7.20;101189.00;;;;4934689;28;110517;-64
2021/10/19 05:30:39;;;;;;;7.13;4.00;;;7.30;99.90;7.20;101185.00;;;;4935195;28;92779;-64
2021/10/19 05:33:05;;;;;;;7.30;5.13;;;7.30;99.90;7.30;101181.00;;;;4934963;28;93817;-64
2021/10/19 05:35:31;;;;;;;7.70;4.20;;;7.40;99.90;7.30;101177.00;;;;4935066;28;93162;-64
2021/10/19 05:37:58;;;;;;;6.70;4.87;;;7.40;99.90;7.30;101180.00;;;;4935305;28;92900;-63
2021/10/19 05:40:24;;;;;;;5.97;4.40;;;7.40;99.90;7.30;101176.00;;;;4935684;28;92114;-63
2021/10/19 05:42:50;;;;;;;7.67;4.80;;;7.40;99.90;7.30;101185.00;;;;4934913;28;104204;-64
2021/10/19 05:45:17;;;;;;;6.00;4.47;;;7.50;99.90;7.40;101178.00;;;;4933475;28;123159;-65
2021/10/19 05:47:45;;;;;;;5.90;4.40;;;7.40;99.90;7.40;101181.00;;;;4934861;28;94060;-64
2021/10/19 05:50:14;;;;;;;6.53;5.57;;;7.50;99.90;7.40;101186.00;;;;4934523;28;92907;-64
2021/10/19 05:52:40;;;;;;;8.87;4.77;;;7.60;99.90;7.50;101180.00;;;;4934570;28;93208;-64
2021/10/19 05:55:07;;;;;;;4.10;3.70;;;7.60;99.90;7.50;101176.00;;;;4934629;28;93426;-64
2021/10/19 05:57:33;;;;;;;5.17;3.87;;;7.60;99.90;7.50;101177.00;;;;4935256;28;92825;-65
2021/10/19 05:59:59;;;;;;;6.57;4.27;;;7.60;99.90;7.50;101179.00;;;;4933433;28;109179;-64
2021/10/19 06:02:24;;;;;;;6.23;4.37;;;7.60;99.90;7.50;101189.00;;;;4933663;28;122754;-64
2021/10/19 06:04:50;;;;;;;7.33;4.57;;;7.60;99.90;7.50;101190.00;;;;4933659;28;122363;-65
2021/10/19 06:07:16;;;;;;;7.77;4.47;;;7.60;99.90;7.50;101185.00;;;;4933826;28;110675;-64
2021/10/19 06:09:41;;;;;;;6.30;5.03;;;7.60;99.90;7.50;101179.00;;;;4934180;28;109417;-63
2021/10/19 06:12:08;;;;;;;7.07;4.27;;;7.60;99.90;7.60;101178.00;;;;4933269;28;110914;-63
2021/10/19 06:14:34;;;;;;;7.20;3.73;;;7.90;99.90;7.60;101186.00;;;;4932603;28;94365;-64
2021/10/19 06:16:59;;;;;;;5.03;4.17;;;7.60;99.90;7.60;101180.00;;;;4922695;28;92748;-64
2021/10/19 06:21:59;;;;;;;6.13;4.13;;;7.70;99.90;7.70;101208.00;;;;4932208;28;93322;-64
2021/10/19 06:24:25;;;;;;;4.77;3.73;;;7.70;99.90;7.70;101201.00;;;;4932684;28;120800;-64
2021/10/19 06:26:51;;;;;;;4.37;3.87;;;7.80;99.90;7.80;101191.00;;;;4934032;28;92964;-64
2021/10/19 06:29:17;;;;;;;8.10;4.43;;;7.90;99.90;7.90;101186.00;;;;4935287;28;92378;-64
2021/10/19 06:31:43;;;;;;;7.77;4.00;;;7.90;99.90;7.90;101186.00;;;;4933505;28;121984;-64
2021/10/19 06:34:09;;;;;;;11.27;7.80;;;8.00;99.90;8.00;101182.00;;;;4933988;28;93410;-64
2021/10/19 06:36:35;;;;;;;11.70;8.23;;;8.00;99.90;8.10;101178.00;;;;4933506;28;94205;-63
2021/10/19 06:39:01;;;;;;;11.97;7.27;;;8.10;99.90;8.20;101176.00;;;;4934158;28;93340;-65
2021/10/19 06:41:27;;;;;;;13.10;8.53;;;8.20;99.90;8.30;101164.00;;;;4933647;28;108055;-64
2021/10/19 06:43:53;;;;;;;19.83;11.53;;;8.40;99.90;8.50;101161.00;;;;4932690;28;123816;-64
2021/10/19 06:46:18;;;;;;;14.70;7.90;;;8.40;99.90;8.60;101168.00;;;;4932309;28;110936;-64
2021/10/19 06:48:44;;;;;;;8.70;7.80;;;8.50;99.90;8.70;101166.00;;;;4934461;28;92830;-64
2021/10/19 06:51:10;;;;;;;9.03;5.87;;;8.70;99.90;8.80;101163.00;;;;4932826;28;123136;-64
2021/10/19 06:53:36;;;;;;;7.70;5.77;;;8.80;99.90;8.90;101160.00;;;;4934272;28;92729;-63
2021/10/19 06:56:02;;;;;;;8.57;6.47;;;8.90;99.90;9.00;101160.00;;;;4935035;28;93292;-62
2021/10/19 06:58:28;;;;;;;5.37;4.03;;;9.00;99.90;9.10;101173.00;;;;4934062;28;92952;-63
2021/10/19 07:00:55;;;;;;;4.87;4.17;;;9.00;99.90;9.10;101170.00;;;;4932384;28;122997;-64
2021/10/19 07:03:23;;;;;;;8.77;4.67;;;9.10;99.90;9.20;101184.00;;;;4915018;28;93265;-65
2021/10/19 07:05:49;;;;;;;6.53;5.13;;;9.20;99.90;9.30;101181.00;;;;4916143;28;93070;-64
2021/10/19 07:08:15;;;;;;;7.30;5.33;;;9.30;99.90;9.40;101171.00;;;;4934050;28;93883;-63
2021/10/19 07:10:41;;;;;;;9.83;5.53;;;9.40;99.90;9.50;101178.00;;;;4933609;28;111557;-63
2021/10/19 07:13:07;;;;;;;8.30;5.43;;;9.60;99.90;9.60;101177.00;;;;4933403;28;93051;-63
2021/10/19 07:15:36;;;;;;;5.33;3.60;;;9.50;99.90;9.60;101183.00;;;;4933479;28;109541;-64
2021/10/19 07:18:06;;;;;;;6.77;4.23;;;9.60;99.90;9.70;101188.00;;;;4934163;28;91942;-65
2021/10/19 07:20:33;;;;;;;6.03;4.03;;;9.70;99.90;9.70;101184.00;;;;4933608;28;93489;-64
2021/10/19 07:22:59;;;;;;;3.23;2.93;;;9.70;99.90;9.80;101181.00;;;;4933236;28;92921;-65
2021/10/19 07:25:26;;;;;;;4.80;4.30;;;9.80;99.90;9.90;101179.00;;;;4933217;28;93789;-63
2021/10/19 07:27:53;;;;;;;5.70;4.20;;;9.80;99.90;9.90;101187.00;;;;4933904;28;92832;-64
2021/10/19 07:30:18;;;;;;;7.23;4.17;;;9.90;99.90;10.00;101183.00;;;;4933335;28;95789;-62
2021/10/19 07:32:46;;;;;;;7.23;4.13;;;10.00;99.90;10.10;101177.00;;;;4931871;28;123491;-64
2021/10/19 07:35:14;;;;;;;5.30;3.23;;;10.00;99.90;10.10;101186.00;;;;4933331;28;92957;-64
2021/10/19 07:37:42;;;;;;;4.77;3.17;;;10.10;99.90;10.20;101171.00;;;;4933413;28;92902;-63
2021/10/19 07:40:10;;;;;;;4.73;3.37;;;10.20;99.90;10.20;101171.00;;;;4933258;28;93149;-63
2021/10/19 07:42:36;;;;;;;5.10;3.33;;;10.20;99.90;10.30;101163.00;;;;4933777;28;92709;-63
2021/10/19 07:45:06;;;;;;;4.37;3.53;;;10.30;99.90;10.40;101160.00;;;;4933437;28;92796;-63
2021/10/19 07:47:32;;;;;;;4.70;3.40;;;10.40;99.90;10.40;101161.00;;;;4934287;28;92708;-63
2021/10/19 07:49:58;;;;;;;10.03;3.97;;;10.50;99.90;10.50;101163.00;;;;4936795;28;107934;-63
2021/10/19 07:52:24;;;;;;;4.87;3.60;;;10.50;99.90;10.60;101168.00;;;;4941455;28;94295;-65
2021/10/19 07:54:50;;;;;;;5.20;3.43;;;10.60;99.90;10.70;101166.00;;;;4938838;28;101382;-64
2021/10/19 07:57:15;;;;;;;5.63;3.17;;;10.60;99.90;10.80;101165.00;;;;4939392;28;108507;-65
2021/10/19 07:59:41;;;;;;;4.43;3.70;;;10.70;99.90;10.90;101163.00;;;;4938154;28;122496;-63
2021/10/19 08:02:07;;;;;;;7.27;3.50;;;10.80;99.90;11.00;101175.00;;;;4939924;28;92850;-64
2021/10/19 08:04:33;;;;;;;3.97;3.20;;;10.90;99.90;11.20;101171.00;;;;4940012;28;92760;-64
2021/10/19 08:06:59;;;;;;;7.43;3.57;;;11.10;99.90;11.30;101163.00;;;;4939782;28;98271;-64
2021/10/19 08:09:25;;;;;;;3.60;3.00;;;11.20;99.90;11.50;101172.00;;;;4939076;28;94032;-64
2021/10/19 08:11:50;;;;;;;7.17;3.80;;;11.40;99.90;11.60;101166.00;;;;4938942;28;92876;-64
2021/10/19 08:14:16;;;;;;;6.17;3.20;;;11.50;99.90;11.80;101164.00;;;;4938595;28;93913;-65
2021/10/19 08:16:42;;;;;;;7.73;3.67;;;11.70;99.90;12.00;101169.00;;;;4939136;28;108893;-64
2021/10/19 08:19:08;;;;;;;5.90;4.00;;;11.90;99.90;12.20;101167.00;;;;4938592;28;122983;-64
2021/10/19 08:21:33;;;;;;;5.33;2.93;;;12.10;99.90;12.50;101173.00;;;;4939106;28;108710;-65
2021/10/19 08:24:00;;;;;;;9.90;5.20;;;12.30;99.90;12.70;101161.00;;;;4938189;28;109114;-63
2021/10/19 08:26:30;;;;;;;8.27;4.43;;;12.60;99.90;13.00;101164.00;;;;4939100;28;92717;-63
2021/10/19 08:29:01;;;;;;;4.90;3.10;;;12.80;99.90;13.30;101168.00;;;;4939036;28;92976;-62
2021/10/19 08:31:29;;;;;;;2.90;2.60;;;13.10;99.90;13.50;101171.00;;;;4939561;28;92765;-63
2021/10/19 08:33:56;;;;;;;7.67;3.37;;;13.40;99.90;13.80;101176.00;;;;4920842;28;92861;-64
2021/10/19 08:36:22;;;;;;;4.90;2.77;;;13.60;99.90;14.00;101176.00;;;;4939867;28;92866;-63
2021/10/19 08:38:50;;;;;;;3.77;2.47;;;13.80;99.90;14.10;101184.00;;;;4938562;28;93800;-63
2021/10/19 08:41:17;;;;;;;3.03;2.50;;;14.00;99.90;14.30;101184.00;;;;4939600;28;93173;-63
2021/10/19 08:43:45;;;;;;;4.73;2.47;;;14.10;99.90;14.50;101187.00;;;;4939024;28;96422;-63
2021/10/19 08:46:13;;;;;;;3.40;2.23;;;14.40;99.90;14.70;101176.00;;;;4939438;28;92913;-64
2021/10/19 08:48:40;;;;;;;4.40;2.03;;;14.50;99.90;14.90;101163.00;;;;4939416;28;92985;-64
2021/10/19 08:51:11;;;;;;;3.97;1.97;;;14.70;99.90;15.20;101175.00;;;;4939245;28;98114;-64
2021/10/19 08:53:42;;;;;;;4.20;2.47;;;15.00;99.90;15.40;101171.00;;;;4939045;28;93001;-64
2021/10/19 08:56:08;;;;;;;4.10;1.93;;;15.20;99.90;15.60;101163.00;;;;4939958;28;91899;-65
2021/10/19 08:58:37;;;;;;;3.80;2.45;;;15.40;99.90;15.90;101171.00;;;;4939740;28;93582;-65
2021/10/19 09:01:10;;;;;;;3.65;2.28;;;15.70;98.10;16.10;101167.00;;;;4935849;28;93282;-64
2021/10/19 09:03:47;;;;;;;2.67;2.17;;;15.90;96.00;16.30;101152.00;;;;4927176;28;93771;-64
2021/10/19 09:06:13;;;;;;;2.63;1.88;;;16.10;94.30;16.50;101163.00;;;;4936157;28;92992;-64
2021/10/19 09:08:49;;;;;;;3.50;2.20;;;16.30;92.30;16.60;101145.00;;;;4934532;28;124257;-64
2021/10/19 09:11:15;;;;;;;2.38;1.65;;;16.50;85.80;16.60;101148.00;;;;4916069;28;93748;-64
2021/10/19 09:13:54;;;;;;;6.45;2.28;;;16.50;86.20;16.60;101147.00;;;;4932155;28;92836;-64
2021/10/19 09:16:47;;;;;;;5.82;2.03;;;16.50;87.10;16.80;101140.00;;;;4935849;28;92773;-64
2021/10/19 09:19:15;;;;;;;3.08;2.78;;;16.70;86.00;16.90;101137.00;;;;4935088;28;92863;-64
2021/10/19 09:22:08;;;;;;;3.95;1.98;;;16.70;84.00;16.90;101141.00;;;;4935306;28;93408;-64
2021/10/19 09:24:40;;;;;;;4.55;2.42;;;16.70;82.30;17.10;101145.00;;;;4929395;28;92917;-64
2021/10/19 09:27:10;;;;;;;3.05;1.98;;;16.90;82.20;17.40;101152.00;;;;4916909;28;93085;-64
2021/10/19 09:29:45;;;;;;;3.08;1.83;;;17.20;80.50;17.70;101151.00;;;;4915063;28;93758;-67
2021/10/19 09:32:13;;;;;;;2.65;1.73;;;17.50;79.40;18.00;101152.00;;;;4935552;28;93970;-67
2021/10/19 09:34:43;;;;;;;2.78;2.05;;;17.70;76.60;18.30;101149.00;;;;4934584;28;92670;-67
2021/10/19 09:37:17;;;;;;;8.95;2.20;;;18.00;76.40;18.60;101145.00;;;;4935365;28;92709;-67
2021/10/19 09:39:49;;;;;;;2.17;1.35;;;18.30;73.90;18.90;101132.00;;;;4934444;28;94267;-67
2021/10/19 09:42:22;;;;;;;1.63;1.40;;;18.60;73.00;19.10;101121.00;;;;4935255;28;93278;-67
2021/10/19 09:44:57;;;;;;;2.28;1.85;;;18.90;71.30;19.50;101135.00;;;;4916812;28;92879;-67
2021/10/19 09:47:30;;;;;;;2.88;1.58;;;19.40;70.60;19.70;101140.00;;;;4917021;28;91917;-68
2021/10/19 09:49:56;;;;;;;2.40;1.48;;;19.40;66.80;19.70;101134.00;;;;4915660;28;93057;-67
2021/10/19 09:52:23;;;;;;;1.85;1.52;;;19.50;62.60;19.60;101136.00;;;;4916474;28;93479;-67
2021/10/19 09:54:53;;;;;;;3.83;2.10;;;19.40;61.50;19.40;101137.00;;;;4934190;28;93602;-67
2021/10/19 09:57:20;;;;;;;4.95;2.30;;;19.30;61.70;19.20;101134.00;;;;4916752;28;92861;-66
2021/10/19 09:59:45;;;;;;;2.65;1.73;;;19.20;59.50;18.90;101119.00;;;;4934398;28;102767;-67
2021/10/19 10:02:14;;;;;;;2.65;2.00;;;18.90;60.10;18.80;101119.00;;;;4935025;28;93545;-68
2021/10/19 10:04:42;;;;;;;1.55;1.45;;;18.70;62.00;18.80;101120.00;;;;4934637;28;92735;-67
2021/10/19 10:07:13;;;;;;;2.65;1.60;;;18.60;63.00;18.90;101118.00;;;;4935321;28;92775;-67
2021/10/19 10:09:41;;;;;;;3.05;1.55;;;18.70;63.20;19.10;101130.00;;;;4934433;28;93570;-67
2021/10/19 10:12:08;;;;;;;1.67;1.58;;;18.80;63.70;19.20;101128.00;;;;4902628;28;98332;-69
2021/10/19 10:14:49;;;;;;;3.60;2.03;;;19.00;64.00;19.40;101133.00;;;;4916781;28;92719;-67
2021/10/19 10:17:15;;;;;;;2.85;1.52;;;19.20;62.50;19.50;101127.00;;;;4917434;28;92861;-67
2021/10/19 10:19:43;;;;;;;1.45;1.25;;;19.30;62.00;19.50;101112.00;;;;4933170;28;124071;-68
2021/10/19 10:22:28;;;;;;;2.90;1.17;;;19.30;63.10;19.50;101125.00;;;;4934758;28;93617;-68
2021/10/19 10:25:08;;;;;;;1.92;1.50;;;19.30;61.80;19.50;101122.00;;;;4916854;28;92727;-67
2021/10/19 10:27:36;;;;;;;1.38;1.10;;;19.30;60.60;19.50;101121.00;;;;4935523;28;92978;-67
2021/10/19 10:30:03;;;;;;;3.25;1.45;;;19.30;60.20;19.60;101114.00;;;;4916381;28;92817;-66
2021/10/19 10:32:33;;;;;;;2.03;1.40;;;19.30;60.10;19.70;101117.00;;;;4934315;28;92775;-67
2021/10/19 10:35:09;;;;;;;3.03;1.80;;;19.50;60.20;19.80;101113.00;;;;4934554;28;92795;-66
2021/10/19 10:37:43;;;;;;;3.05;1.63;;;19.60;59.00;19.80;101103.00;;;;4934556;28;96223;-67
2021/10/19 10:40:31;;;;;;;4.18;2.05;;;19.60;58.30;19.90;101105.00;;;;4915530;28;108174;-67
2021/10/19 10:43:00;;;;;;;2.45;1.20;;;19.60;59.50;20.00;101103.00;;;;4934592;28;93021;-67
2021/10/19 10:45:33;;;;;;;11.70;1.90;;;19.70;59.30;20.00;101102.00;;;;4933448;28;93815;-67
2021/10/19 10:48:05;;;;;;;1.88;1.58;;;19.80;57.70;19.90;101104.00;;;;4934188;28;97233;-67
2021/10/19 10:50:34;;;;;;;1.77;1.42;;;19.70;58.30;19.80;101095.00;;;;4933676;28;105568;-67
2021/10/19 10:53:09;;;;;;;1.48;1.38;;;19.70;58.30;19.80;101092.00;;;;4934064;28;93193;-67
2021/10/19 10:55:41;;;;;;;1.58;1.42;;;19.70;58.00;19.80;101088.00;;;;4933666;28;92706;-68
2021/10/19 10:58:08;;;;;;;2.13;1.48;;;19.60;58.20;19.70;101091.00;;;;4915677;28;94469;-69